createdAt,value
2022-11-17T00:00:44.128Z,11.99
2022-11-17T00:03:16.462Z,12.03
2022-11-17T00:05:44.840Z,12.10
2022-11-17T00:08:13.243Z,12.09
2022-11-17T00:10:41.522Z,12.15
2022-11-17T00:13:34.443Z,12.19
2022-11-17T00:16:02.779Z,12.16
2022-11-17T00:18:49.710Z,12.17
2022-11-17T00:21:23.701Z,12.14
2022-11-17T00:23:52.081Z,12.12
2022-11-17T00:26:23.055Z,12.25
2022-11-17T00:28:54.573Z,12.22
2022-11-17T00:31:41.227Z,12.21
2022-11-17T00:34:14.377Z,12.17
2022-11-17T00:36:44.872Z,12.20
2022-11-17T00:39:15.016Z,12.14
2022-11-17T00:41:43.479Z,12.13
2022-11-17T00:44:12.032Z,12.10
2022-11-17T00:46:40.987Z,12.16
2022-11-17T00:49:11.744Z,12.17
2022-11-17T00:51:40.037Z,12.16
2022-11-17T00:54:11.701Z,12.15
2022-11-17T00:56:40.212Z,12.12
2022-11-17T00:59:08.331Z,12.21
2022-11-17T01:01:37.217Z,12.32
2022-11-17T01:04:06.307Z,12.40
2022-11-17T01:06:39.038Z,12.34
2022-11-17T01:09:11.261Z,12.23
2022-11-17T01:11:39.733Z,12.16
2022-11-17T01:14:08.030Z,12.11
2022-11-17T01:16:36.182Z,12.15
2022-11-17T01:19:04.953Z,12.22
2022-11-17T01:21:34.766Z,12.24
2022-11-17T01:24:03.125Z,12.18
2022-11-17T01:26:34.709Z,12.22
2022-11-17T01:29:04.586Z,12.23
2022-11-17T01:31:34.873Z,12.23
2022-11-17T01:34:03.285Z,12.19
2022-11-17T01:36:56.843Z,12.18
2022-11-17T01:39:26.621Z,12.14
2022-11-17T01:41:55.987Z,12.21
2022-11-17T01:45:05.190Z,12.25
2022-11-17T01:47:43.641Z,12.29
2022-11-17T01:50:26.654Z,12.26
2022-11-17T01:52:59.975Z,12.26
2022-11-17T01:55:35.652Z,12.29
2022-11-17T01:58:10.088Z,12.33
2022-11-17T02:00:38.324Z,12.33
2022-11-17T02:03:07.311Z,12.35
2022-11-17T02:05:45.001Z,12.36
2022-11-17T02:08:15.873Z,12.39
2022-11-17T02:10:50.193Z,12.41
2022-11-17T02:13:18.605Z,12.43
2022-11-17T02:15:46.936Z,12.41
2022-11-17T02:18:16.234Z,12.35
2022-11-17T02:20:59.573Z,12.35
2022-11-17T02:24:13.691Z,12.24
2022-11-17T02:27:42.930Z,12.20
2022-11-17T02:30:15.084Z,12.07
2022-11-17T02:32:59.592Z,12.06
2022-11-17T02:35:36.123Z,12.00
2022-11-17T02:38:18.016Z,12.02
2022-11-17T02:40:53.730Z,12.02
2022-11-17T02:43:50.166Z,12.23
2022-11-17T02:46:22.621Z,12.25
2022-11-17T02:48:56.902Z,12.18
2022-11-17T02:51:25.982Z,12.12
2022-11-17T02:53:57.914Z,12.15
2022-11-17T02:56:26.093Z,12.17
2022-11-17T02:59:00.758Z,12.23
2022-11-17T03:01:58.965Z,12.28
2022-11-17T03:04:43.673Z,12.23
2022-11-17T03:07:27.479Z,12.29
2022-11-17T03:10:09.888Z,12.24
2022-11-17T03:12:48.875Z,12.25
2022-11-17T03:15:28.918Z,12.31
2022-11-17T03:18:08.008Z,12.40
2022-11-17T03:20:44.196Z,12.35
2022-11-17T03:23:19.429Z,12.37
2022-11-17T03:25:54.714Z,12.33
2022-11-17T03:28:28.865Z,12.32
2022-11-17T03:31:00.335Z,12.32
2022-11-17T03:33:29.954Z,12.24
2022-11-17T03:36:04.689Z,12.25
2022-11-17T03:38:39.112Z,12.28
2022-11-17T03:41:10.148Z,12.29
2022-11-17T03:43:40.411Z,12.28
2022-11-17T03:46:16.149Z,12.37
2022-11-17T03:48:52.169Z,12.36
2022-11-17T03:51:24.342Z,12.33
2022-11-17T03:53:53.464Z,12.39
2022-11-17T03:56:34.605Z,12.43
2022-11-17T03:59:11.017Z,12.38
2022-11-17T04:01:40.735Z,12.34
2022-11-17T04:04:13.814Z,12.42
2022-11-17T04:06:41.957Z,12.44
2022-11-17T04:09:10.123Z,12.49
2022-11-17T04:11:55.936Z,12.49
2022-11-17T04:14:41.817Z,12.46
2022-11-17T04:17:11.313Z,12.40
2022-11-17T04:19:39.639Z,12.48
2022-11-17T04:22:07.754Z,12.47
2022-11-17T04:24:35.850Z,12.51
2022-11-17T04:27:21.795Z,12.51
2022-11-17T04:29:49.932Z,12.53
2022-11-17T04:32:19.363Z,12.56
2022-11-17T04:34:48.237Z,12.59
2022-11-17T04:37:18.189Z,12.57
2022-11-17T04:39:46.814Z,12.47
2022-11-17T04:42:13.903Z,12.48
2022-11-17T04:44:41.933Z,12.46
2022-11-17T04:47:10.204Z,12.53
2022-11-17T04:49:39.621Z,12.58
2022-11-17T04:52:07.729Z,12.58
2022-11-17T04:54:35.958Z,12.57
2022-11-17T04:57:04.048Z,12.53
2022-11-17T04:59:32.139Z,12.54
2022-11-17T05:02:05.648Z,12.53
2022-11-17T05:04:52.589Z,12.54
2022-11-17T05:07:22.050Z,12.60
2022-11-17T05:12:59.942Z,12.50
2022-11-17T05:15:42.092Z,12.49
2022-11-17T05:18:10.179Z,12.51
2022-11-17T05:20:38.287Z,12.53
2022-11-17T05:23:25.156Z,12.59
2022-11-17T05:25:54.845Z,12.55
2022-11-17T05:28:22.886Z,12.54
2022-11-17T05:30:51.076Z,12.48
2022-11-17T05:33:19.195Z,12.49
2022-11-17T05:35:47.289Z,12.57
2022-11-17T05:38:16.712Z,12.64
2022-11-17T05:40:44.830Z,12.61
2022-11-17T05:43:12.897Z,12.66
2022-11-17T05:45:40.943Z,12.67
2022-11-17T05:48:09.178Z,12.70
2022-11-17T05:50:37.405Z,12.72
2022-11-17T05:53:05.904Z,12.74
2022-11-17T05:55:35.564Z,12.70
2022-11-17T05:58:07.740Z,12.69
2022-11-17T06:00:37.744Z,12.72
2022-11-17T06:03:13.484Z,12.75
2022-11-17T06:05:41.769Z,12.76
2022-11-17T06:08:10.520Z,12.78
2022-11-17T06:10:40.128Z,12.80
2022-11-17T06:13:08.250Z,12.89
2022-11-17T06:15:36.599Z,12.93
2022-11-17T06:18:10.570Z,12.93
2022-11-17T06:20:43.281Z,13.00
2022-11-17T06:23:12.833Z,12.99
2022-11-17T06:25:42.790Z,12.96
2022-11-17T06:28:14.961Z,13.02
2022-11-17T06:30:44.267Z,13.00
2022-11-17T06:33:15.596Z,13.01
2022-11-17T06:35:45.543Z,12.90
2022-11-17T06:38:13.678Z,12.86
2022-11-17T06:40:43.232Z,12.87
2022-11-17T06:43:11.381Z,12.84
2022-11-17T06:45:41.624Z,12.90
2022-11-17T06:48:11.542Z,12.82
2022-11-17T06:50:40.100Z,12.90
2022-11-17T06:53:10.741Z,12.95
2022-11-17T06:55:39.469Z,12.93
2022-11-17T06:58:12.251Z,12.98
2022-11-17T07:00:40.638Z,13.02
2022-11-17T07:03:11.355Z,12.99
2022-11-17T07:05:40.547Z,13.06
2022-11-17T07:08:10.448Z,13.11
2022-11-17T07:10:38.954Z,13.11
2022-11-17T07:13:08.860Z,13.13
2022-11-17T07:15:36.953Z,13.17
2022-11-17T07:18:05.329Z,13.19
2022-11-17T07:20:33.530Z,13.30
2022-11-17T07:23:01.660Z,13.27
2022-11-17T07:25:29.760Z,13.20
2022-11-17T07:28:01.671Z,13.23
2022-11-17T07:30:31.167Z,13.27
2022-11-17T07:33:00.786Z,13.28
2022-11-17T07:35:29.028Z,13.33
2022-11-17T07:37:59.901Z,13.38
2022-11-17T07:40:28.546Z,13.34
2022-11-17T07:42:56.869Z,13.37
2022-11-17T07:45:31.412Z,13.36
2022-11-17T07:48:04.331Z,13.38
2022-11-17T07:50:32.688Z,13.42
2022-11-17T07:53:00.877Z,13.49
2022-11-17T07:55:29.044Z,13.41
2022-11-17T07:57:59.066Z,13.39
2022-11-17T08:00:28.207Z,13.44
2022-11-17T08:02:56.580Z,13.46
2022-11-17T08:05:30.462Z,13.52
2022-11-17T08:08:00.049Z,13.45
2022-11-17T08:10:31.167Z,13.51
2022-11-17T08:13:00.735Z,13.51
2022-11-17T08:15:29.799Z,13.56
2022-11-17T08:18:00.303Z,13.64
2022-11-17T08:20:30.955Z,13.63
2022-11-17T08:22:59.224Z,13.55
2022-11-17T08:25:28.328Z,13.58
2022-11-17T08:27:57.961Z,13.60
2022-11-17T08:30:28.474Z,13.61
2022-11-17T08:32:56.791Z,13.59
2022-11-17T08:35:26.655Z,13.54
2022-11-17T08:37:56.945Z,13.57
2022-11-17T08:40:26.400Z,13.64
2022-11-17T08:43:00.583Z,13.69
2022-11-17T08:45:58.933Z,13.70
2022-11-17T08:48:29.482Z,13.84
2022-11-17T08:50:57.814Z,13.95
2022-11-17T08:53:27.263Z,14.00
2022-11-17T08:55:55.502Z,14.01
2022-11-17T08:58:23.684Z,14.13
2022-11-17T09:00:51.899Z,14.12
2022-11-17T09:03:20.027Z,14.18
2022-11-17T09:05:48.408Z,14.23
2022-11-17T09:08:43.897Z,14.26
2022-11-17T09:11:08.702Z,14.33
2022-11-17T09:13:37.852Z,14.32
2022-11-17T09:16:09.005Z,14.40
2022-11-17T09:18:39.217Z,14.33
2022-11-17T09:21:13.594Z,14.32
2022-11-17T09:23:42.224Z,14.35
2022-11-17T09:26:15.470Z,14.29
2022-11-17T09:28:44.425Z,14.25
2022-11-17T09:31:16.801Z,14.30
2022-11-17T09:33:45.968Z,14.32
2022-11-17T09:36:18.266Z,14.37
2022-11-17T09:38:54.414Z,14.41
2022-11-17T09:41:35.468Z,14.41
2022-11-17T09:44:24.057Z,14.33
2022-11-17T09:47:14.485Z,14.40
2022-11-17T09:49:58.693Z,14.35
2022-11-17T09:52:34.520Z,14.33
2022-11-17T09:55:16.850Z,14.36
2022-11-17T09:57:52.630Z,14.33
2022-11-17T10:00:23.748Z,14.34
2022-11-17T10:02:54.751Z,14.43
2022-11-17T10:05:30.279Z,14.48
2022-11-17T10:08:06.272Z,14.44
2022-11-17T10:10:42.287Z,14.57
2022-11-17T10:13:24.917Z,14.55
2022-11-17T10:15:58.590Z,14.55
2022-11-17T10:18:31.445Z,14.60
2022-11-17T10:21:02.366Z,14.58
2022-11-17T10:23:42.811Z,14.55
2022-11-17T10:26:16.911Z,14.58
2022-11-17T10:28:48.425Z,14.54
2022-11-17T10:31:19.459Z,14.57
2022-11-17T10:33:51.875Z,14.61
2022-11-17T10:36:31.997Z,14.58
2022-11-17T10:39:01.693Z,14.55
2022-11-17T10:41:38.715Z,14.49
2022-11-17T10:44:21.189Z,14.59
2022-11-17T10:47:02.904Z,14.51
2022-11-17T10:49:36.694Z,14.56
2022-11-17T10:52:19.284Z,14.67
2022-11-17T10:54:51.334Z,14.68
2022-11-17T10:57:25.414Z,14.90
2022-11-17T10:59:59.160Z,15.01
2022-11-17T11:02:35.067Z,15.10
2022-11-17T11:05:12.834Z,15.14
2022-11-17T11:07:42.489Z,15.30
2022-11-17T11:10:18.376Z,15.16
2022-11-17T11:12:51.571Z,15.06
2022-11-17T11:15:25.003Z,15.12
2022-11-17T11:17:54.069Z,15.29
2022-11-17T11:20:35.815Z,15.25
2022-11-17T11:23:10.248Z,15.40
2022-11-17T11:25:58.288Z,15.37
2022-11-17T11:28:46.199Z,15.51
2022-11-17T11:31:26.572Z,15.27
2022-11-17T11:34:08.192Z,15.32
2022-11-17T11:36:40.726Z,15.22
2022-11-17T11:39:24.673Z,15.30
2022-11-17T11:42:22.427Z,15.37
2022-11-17T11:45:17.432Z,15.36
2022-11-17T11:48:18.549Z,15.44
2022-11-17T11:50:57.458Z,15.31
2022-11-17T11:53:42.958Z,15.43
2022-11-17T11:56:19.851Z,15.20
2022-11-17T11:59:00.022Z,15.33
2022-11-17T12:01:31.710Z,15.52
2022-11-17T12:04:18.168Z,15.58
2022-11-17T12:06:54.731Z,15.38
2022-11-17T12:09:49.343Z,15.26
2022-11-17T12:12:24.257Z,15.40
2022-11-17T12:15:35.774Z,15.49
2022-11-17T12:18:15.159Z,15.46
2022-11-17T12:21:10.089Z,15.64
2022-11-17T12:24:07.124Z,15.51
2022-11-17T12:26:36.984Z,15.50
2022-11-17T12:29:44.649Z,15.55
2022-11-17T12:32:59.795Z,15.53
2022-11-17T12:35:30.318Z,15.53
2022-11-17T12:38:42.921Z,15.45
2022-11-17T12:41:14.484Z,15.47
2022-11-17T12:43:42.906Z,15.53
2022-11-17T12:46:26.550Z,15.59
2022-11-17T12:49:09.595Z,15.62
2022-11-17T12:51:46.407Z,15.63
2022-11-17T12:54:26.208Z,15.84
2022-11-17T12:57:10.554Z,15.91
2022-11-17T13:00:13.830Z,15.88
2022-11-17T13:02:58.568Z,15.85
2022-11-17T13:05:31.330Z,15.74
2022-11-17T13:08:23.743Z,15.77
2022-11-17T13:11:03.481Z,15.86
2022-11-17T13:13:33.980Z,15.76
2022-11-17T13:16:05.966Z,15.81
2022-11-17T13:18:38.720Z,15.89
2022-11-17T13:21:30.285Z,15.88
2022-11-17T13:24:00.272Z,15.94
2022-11-17T13:26:37.459Z,15.86
2022-11-17T13:29:13.202Z,15.94
2022-11-17T13:31:42.059Z,15.98
2022-11-17T13:34:18.995Z,16.10
2022-11-17T13:36:55.111Z,16.07
2022-11-17T13:39:27.508Z,16.05
2022-11-17T13:41:59.134Z,16.02
2022-11-17T13:44:29.765Z,16.03
2022-11-17T13:46:57.956Z,16.04
2022-11-17T13:49:34.983Z,15.97
2022-11-17T13:52:15.308Z,15.92
2022-11-17T13:54:46.356Z,15.94
2022-11-17T13:57:26.443Z,16.01
2022-11-17T14:00:08.925Z,15.97
2022-11-17T14:02:38.124Z,15.88
2022-11-17T14:05:28.648Z,15.94
2022-11-17T14:07:59.262Z,15.90
2022-11-17T14:10:38.088Z,15.85
2022-11-17T14:13:30.814Z,15.76
2022-11-17T14:16:00.808Z,15.70
2022-11-17T14:18:37.380Z,15.75
2022-11-17T14:21:15.170Z,15.73
2022-11-17T14:23:46.128Z,15.68
2022-11-17T14:26:23.335Z,15.71
2022-11-17T14:28:53.846Z,15.67
2022-11-17T14:31:24.540Z,15.46
2022-11-17T14:33:52.721Z,15.53
2022-11-17T14:36:22.587Z,15.48
2022-11-17T14:38:50.771Z,15.51
2022-11-17T14:41:19.943Z,15.46
2022-11-17T14:43:51.303Z,15.41
2022-11-17T14:46:24.408Z,15.40
2022-11-17T14:48:53.846Z,15.37
2022-11-17T14:51:23.209Z,15.30
2022-11-17T14:53:51.424Z,15.26
2022-11-17T14:56:21.948Z,15.25
2022-11-17T14:58:56.684Z,15.28
2022-11-17T15:01:30.365Z,15.21
2022-11-17T15:04:20.875Z,15.17
2022-11-17T15:06:49.892Z,15.14
2022-11-17T15:09:20.385Z,15.17
2022-11-17T15:11:48.785Z,15.16
2022-11-17T15:14:17.246Z,15.11
2022-11-17T15:16:46.993Z,15.16
2022-11-17T15:19:15.211Z,15.09
2022-11-17T15:21:43.440Z,15.10
2022-11-17T15:24:11.576Z,15.08
2022-11-17T15:26:39.888Z,15.06
2022-11-17T15:29:08.005Z,15.05
2022-11-17T15:31:36.644Z,15.08
2022-11-17T15:34:06.493Z,14.98
2022-11-17T15:36:34.997Z,14.95
2022-11-17T15:39:03.195Z,14.95
2022-11-17T15:41:33.034Z,14.91
2022-11-17T15:44:03.699Z,14.91
2022-11-17T15:46:31.776Z,14.85
2022-11-17T15:49:00.163Z,14.84
2022-11-17T15:51:30.287Z,14.79
2022-11-17T15:54:00.979Z,14.79
2022-11-17T15:56:30.903Z,14.75
2022-11-17T15:59:02.071Z,14.78
2022-11-17T16:01:34.798Z,14.71
2022-11-17T16:04:05.596Z,14.73
2022-11-17T16:06:57.502Z,14.61
2022-11-17T16:09:25.660Z,14.59
2022-11-17T16:11:54.076Z,14.56
2022-11-17T16:14:22.326Z,14.35
2022-11-17T16:16:50.506Z,14.40
2022-11-17T16:19:18.871Z,14.43
2022-11-17T16:21:47.245Z,14.46
2022-11-17T16:24:16.867Z,14.46
2022-11-17T16:26:45.802Z,14.39
2022-11-17T16:29:14.123Z,14.39
2022-11-17T16:31:49.591Z,14.42
2022-11-17T16:34:19.119Z,14.42
2022-11-17T16:36:47.195Z,14.37
2022-11-17T16:39:18.084Z,14.36
2022-11-17T16:41:47.838Z,14.23
2022-11-17T16:44:18.387Z,14.19
2022-11-17T16:46:52.752Z,14.29
2022-11-17T16:49:21.243Z,14.30
2022-11-17T16:51:51.421Z,14.31
2022-11-17T16:54:21.552Z,14.24
2022-11-17T16:56:49.681Z,14.20
2022-11-17T16:59:18.282Z,14.19
2022-11-17T17:01:47.511Z,14.16
2022-11-17T17:04:15.716Z,14.10
2022-11-17T17:06:46.044Z,14.14
2022-11-17T17:09:16.067Z,14.01
2022-11-17T17:11:46.104Z,13.98
2022-11-17T17:14:16.600Z,14.01
2022-11-17T17:16:45.056Z,13.99
2022-11-17T17:19:16.061Z,14.00
2022-11-17T17:21:45.512Z,13.89
2022-11-17T17:24:14.031Z,13.95
2022-11-17T17:26:42.710Z,13.88
2022-11-17T17:29:13.509Z,13.89
2022-11-17T17:31:43.302Z,13.91
2022-11-17T17:34:13.807Z,13.92
2022-11-17T17:36:42.124Z,14.01
2022-11-17T17:39:15.450Z,14.17
2022-11-17T17:41:45.829Z,14.18
2022-11-17T17:44:20.169Z,14.22
2022-11-17T17:46:49.348Z,14.24
2022-11-17T17:49:36.793Z,14.30
2022-11-17T17:52:14.132Z,14.29
2022-11-17T17:54:42.904Z,14.31
2022-11-17T17:57:11.531Z,14.30
2022-11-17T17:59:41.139Z,14.34
2022-11-17T18:02:10.620Z,14.37
2022-11-17T18:04:38.829Z,14.39
2022-11-17T18:07:06.993Z,14.41
2022-11-17T18:09:35.349Z,14.42
2022-11-17T18:12:03.505Z,14.44
2022-11-17T18:14:32.034Z,14.44
2022-11-17T18:17:01.530Z,14.43
2022-11-17T18:19:32.990Z,14.39
2022-11-17T18:22:46.145Z,14.36
2022-11-17T18:25:23.309Z,14.36
2022-11-17T18:27:59.606Z,14.41
2022-11-17T18:30:28.397Z,14.41
2022-11-17T18:33:02.786Z,14.35
2022-11-17T18:35:31.325Z,14.38
2022-11-17T18:37:59.963Z,14.40
2022-11-17T18:40:28.134Z,14.37
2022-11-17T18:42:59.842Z,14.38
2022-11-17T18:45:28.118Z,14.40
2022-11-17T18:47:57.712Z,14.43
2022-11-17T18:50:25.939Z,14.40
2022-11-17T18:52:54.058Z,14.39
2022-11-17T18:55:22.488Z,14.40
2022-11-17T18:57:50.657Z,14.37
2022-11-17T19:00:19.766Z,14.40
2022-11-17T19:02:49.756Z,14.44
2022-11-17T19:05:19.241Z,14.41
2022-11-17T19:07:48.027Z,14.43
2022-11-17T19:10:18.879Z,14.39
2022-11-17T19:12:47.476Z,14.40
2022-11-17T19:15:15.652Z,14.35
2022-11-17T19:17:43.869Z,14.33
2022-11-17T19:20:13.970Z,14.35
2022-11-17T19:22:43.453Z,14.25
2022-11-17T19:25:11.545Z,14.21
2022-11-17T19:27:39.738Z,14.10
2022-11-17T19:30:09.371Z,13.84
2022-11-17T19:32:37.511Z,13.81
2022-11-17T19:35:15.737Z,13.72
2022-11-17T19:37:48.102Z,13.68
2022-11-17T19:40:17.009Z,13.64
2022-11-17T19:42:48.505Z,13.48
2022-11-17T19:45:16.871Z,13.40
2022-11-17T19:47:45.054Z,13.35
2022-11-17T19:50:13.131Z,13.34
2022-11-17T19:52:41.481Z,13.43
2022-11-17T19:55:11.245Z,13.48
2022-11-17T19:57:42.192Z,13.47
2022-11-17T20:00:12.873Z,13.44
2022-11-17T20:02:41.158Z,13.39
2022-11-17T20:05:11.071Z,13.43
2022-11-17T20:07:39.829Z,13.38
2022-11-17T20:13:43.480Z,13.33
2022-11-17T20:16:14.337Z,13.21
2022-11-17T20:18:43.302Z,13.16
2022-11-17T20:21:13.833Z,13.13
2022-11-17T20:23:43.393Z,13.20
2022-11-17T20:26:16.774Z,13.13
2022-11-17T20:28:45.069Z,13.08
2022-11-17T20:31:34.502Z,13.12
2022-11-17T20:34:05.280Z,13.01
2022-11-17T20:36:35.485Z,13.00
2022-11-17T20:39:06.994Z,12.94
2022-11-17T20:41:36.687Z,12.89
2022-11-17T20:44:05.235Z,12.88
2022-11-17T20:46:33.791Z,12.85
2022-11-17T20:49:01.946Z,12.87
2022-11-17T20:51:32.002Z,12.90
2022-11-17T20:54:04.464Z,12.82
2022-11-17T20:56:43.741Z,12.82
2022-11-17T20:59:16.985Z,12.74
2022-11-17T21:01:49.147Z,12.72
2022-11-17T21:04:17.334Z,12.75
2022-11-17T21:06:48.980Z,12.73
2022-11-17T21:09:35.948Z,12.70
2022-11-17T21:12:06.165Z,12.72
2022-11-17T21:14:37.057Z,12.69
2022-11-17T21:17:28.052Z,12.66
2022-11-17T21:19:56.330Z,12.60
2022-11-17T21:22:24.471Z,12.64
2022-11-17T21:24:56.142Z,12.57
2022-11-17T21:27:25.548Z,12.49
2022-11-17T21:29:53.618Z,12.47
2022-11-17T21:32:23.826Z,12.55
2022-11-17T21:35:02.465Z,12.51
2022-11-17T21:37:30.590Z,12.49
2022-11-17T21:40:02.293Z,12.50
2022-11-17T21:42:34.128Z,12.56
2022-11-17T21:45:02.383Z,12.51
2022-11-17T21:47:30.572Z,12.49
2022-11-17T21:49:58.750Z,12.48
2022-11-17T21:52:26.990Z,12.40
2022-11-17T21:54:55.102Z,12.45
2022-11-17T21:57:23.265Z,12.47
2022-11-17T21:59:52.700Z,12.44
2022-11-17T22:02:22.104Z,12.45
2022-11-17T22:04:50.239Z,12.59
2022-11-17T22:07:18.438Z,12.74
2022-11-17T22:09:46.555Z,12.88
2022-11-17T22:12:14.690Z,12.97
2022-11-17T22:14:42.773Z,13.12
2022-11-17T22:17:12.176Z,13.22
2022-11-17T22:19:40.264Z,13.25
2022-11-17T22:22:08.390Z,13.30
2022-11-17T22:24:38.782Z,13.32
2022-11-17T22:27:07.867Z,13.35
2022-11-17T22:29:35.992Z,13.39
2022-11-17T22:32:04.397Z,13.43
2022-11-17T22:34:33.807Z,13.48
2022-11-17T22:37:01.929Z,13.47
2022-11-17T22:39:30.004Z,13.47
2022-11-17T22:41:58.077Z,13.48
2022-11-17T22:44:26.135Z,13.46
2022-11-17T22:46:54.228Z,13.52
2022-11-17T22:49:22.602Z,13.46
2022-11-17T22:52:04.198Z,13.48
2022-11-17T22:54:32.759Z,13.45
2022-11-17T22:57:02.217Z,13.47
2022-11-17T22:59:31.428Z,13.49
2022-11-17T23:01:59.557Z,13.50
2022-11-17T23:04:27.664Z,13.44
2022-11-17T23:06:57.133Z,13.49
2022-11-17T23:09:25.252Z,13.46
2022-11-17T23:11:53.344Z,13.40
2022-11-17T23:14:21.595Z,13.36
2022-11-17T23:16:49.702Z,13.38
2022-11-17T23:19:18.015Z,13.43
2022-11-17T23:21:46.309Z,13.40
2022-11-17T23:24:15.883Z,13.38
2022-11-17T23:26:44.078Z,13.42
2022-11-17T23:29:12.284Z,13.38
2022-11-17T23:31:40.458Z,13.45
2022-11-17T23:34:10.981Z,13.46
2022-11-17T23:36:39.116Z,13.40
2022-11-17T23:39:07.286Z,13.33
2022-11-17T23:41:36.745Z,13.30
2022-11-17T23:44:05.245Z,13.31
2022-11-17T23:46:33.403Z,13.37
2022-11-17T23:49:01.667Z,13.38
2022-11-17T23:51:29.982Z,13.33
2022-11-17T23:54:02.740Z,13.30
2022-11-17T23:56:34.305Z,13.29
2022-11-17T23:59:04.577Z,13.27
